sensor_id;sensor_type;location;lat;lon;timestamp;temperature;humidity
15241;DHT22;7723;52.170;9.978;2024-01-27T00:02:08;4.60;99.90
15241;DHT22;7723;52.170;9.978;2024-01-27T00:04:36;4.70;99.90
15241;DHT22;7723;52.170;9.978;2024-01-27T00:07:03;4.70;99.90
15241;DHT22;7723;52.170;9.978;2024-01-27T00:09:32;4.70;99.90
15241;DHT22;7723;52.170;9.978;2024-01-27T00:11:59;4.60;1.00
15241;DHT22;7723;52.170;9.978;2024-01-27T00:14:27;4.60;1.00
15241;DHT22;7723;52.170;9.978;2024-01-27T00:16:54;4.50;1.00
15241;DHT22;7723;52.170;9.978;2024-01-27T00:19:21;4.50;15.70
15241;DHT22;7723;52.170;9.978;2024-01-27T00:21:48;4.60;99.90
15241;DHT22;7723;52.170;9.978;2024-01-27T00:24:15;4.60;99.90
15241;DHT22;7723;52.170;9.978;2024-01-27T00:26:44;4.60;99.90
15241;DHT22;7723;52.170;9.978;2024-01-27T00:29:11;4.60;99.90
15241;DHT22;7723;52.170;9.978;2024-01-27T00:31:39;4.60;99.90
15241;DHT22;7723;52.170;9.978;2024-01-27T00:34:06;4.60;99.90
15241;DHT22;7723;52.170;9.978;2024-01-27T00:36:33;4.60;99.90
15241;DHT22;7723;52.170;9.978;2024-01-27T00:39:02;4.60;99.90
15241;DHT22;7723;52.170;9.978;2024-01-27T00:41:30;4.60;99.90
15241;DHT22;7723;52.170;9.978;2024-01-27T00:43:59;4.60;1.00
15241;DHT22;7723;52.170;9.978;2024-01-27T00:46:26;4.50;1.00
15241;DHT22;7723;52.170;9.978;2024-01-27T00:48:53;4.50;1.00
15241;DHT22;7723;52.170;9.978;2024-01-27T00:51:20;4.40;1.00
15241;DHT22;7723;52.170;9.978;2024-01-27T00:53:47;4.40;1.00
15241;DHT22;7723;52.170;9.978;2024-01-27T00:56:14;4.30;1.00
15241;DHT22;7723;52.170;9.978;2024-01-27T00:58:42;4.30;1.00
15241;DHT22;7723;52.170;9.978;2024-01-27T01:01:10;4.30;1.00
15241;DHT22;7723;52.170;9.978;2024-01-27T01:03:37;4.40;1.00
15241;DHT22;7723;52.170;9.978;2024-01-27T01:06:05;4.40;1.00
15241;DHT22;7723;52.170;9.978;2024-01-27T01:08:32;3.60;1.00
15241;DHT22;7723;52.170;9.978;2024-01-27T01:10:59;4.50;1.00
15241;DHT22;7723;52.170;9.978;2024-01-27T01:13:26;4.50;50.30
15241;DHT22;7723;52.170;9.978;2024-01-27T01:15:54;4.60;53.80
15241;DHT22;7723;52.170;9.978;2024-01-27T01:18:22;4.60;83.30
15241;DHT22;7723;52.170;9.978;2024-01-27T01:20:50;4.50;77.40
15241;DHT22;7723;52.170;9.978;2024-01-27T01:23:17;4.60;96.80
15241;DHT22;7723;52.170;9.978;2024-01-27T01:25:44;4.60;87.50
15241;DHT22;7723;52.170;9.978;2024-01-27T01:28:11;4.70;97.10
15241;DHT22;7723;52.170;9.978;2024-01-27T01:30:38;4.70;99.90
15241;DHT22;7723;52.170;9.978;2024-01-27T01:33:05;4.70;99.90
15241;DHT22;7723;52.170;9.978;2024-01-27T01:35:34;4.70;99.90
15241;DHT22;7723;52.170;9.978;2024-01-27T01:38:03;4.60;99.90
15241;DHT22;7723;52.170;9.978;2024-01-27T01:40:30;4.50;99.90
15241;DHT22;7723;52.170;9.978;2024-01-27T01:42:58;4.40;99.90
15241;DHT22;7723;52.170;9.978;2024-01-27T01:45:26;4.30;99.90
15241;DHT22;7723;52.170;9.978;2024-01-27T01:47:53;4.20;99.90
15241;DHT22;7723;52.170;9.978;2024-01-27T01:50:20;4.20;99.90
15241;DHT22;7723;52.170;9.978;2024-01-27T01:52:49;4.20;99.90
15241;DHT22;7723;52.170;9.978;2024-01-27T01:55:18;4.20;99.90
15241;DHT22;7723;52.170;9.978;2024-01-27T01:57:45;4.20;99.90
15241;DHT22;7723;52.170;9.978;2024-01-27T02:00:15;4.20;99.90
15241;DHT22;7723;52.170;9.978;2024-01-27T02:02:43;4.10;99.90
15241;DHT22;7723;52.170;9.978;2024-01-27T02:05:12;4.10;99.90
15241;DHT22;7723;52.170;9.978;2024-01-27T02:07:40;4.10;99.90
15241;DHT22;7723;52.170;9.978;2024-01-27T02:10:14;4.00;99.90
15241;DHT22;7723;52.170;9.978;2024-01-27T02:12:41;4.00;99.90
15241;DHT22;7723;52.170;9.978;2024-01-27T02:15:11;4.00;99.90
15241;DHT22;7723;52.170;9.978;2024-01-27T02:17:39;4.00;99.90
15241;DHT22;7723;52.170;9.978;2024-01-27T02:20:08;4.00;99.90
15241;DHT22;7723;52.170;9.978;2024-01-27T02:22:39;3.90;99.90
15241;DHT22;7723;52.170;9.978;2024-01-27T02:25:08;3.80;99.90
15241;DHT22;7723;52.170;9.978;2024-01-27T02:27:36;3.80;99.90
15241;DHT22;7723;52.170;9.978;2024-01-27T02:30:03;3.70;99.90
15241;DHT22;7723;52.170;9.978;2024-01-27T02:32:31;3.80;99.90
15241;DHT22;7723;52.170;9.978;2024-01-27T02:34:58;3.70;99.90
15241;DHT22;7723;52.170;9.978;2024-01-27T02:37:25;3.80;99.90
15241;DHT22;7723;52.170;9.978;2024-01-27T02:39:52;3.70;99.90
15241;DHT22;7723;52.170;9.978;2024-01-27T02:42:21;3.60;99.90
15241;DHT22;7723;52.170;9.978;2024-01-27T02:44:49;3.60;99.90
15241;DHT22;7723;52.170;9.978;2024-01-27T02:47:16;3.60;99.90
15241;DHT22;7723;52.170;9.978;2024-01-27T02:49:43;3.60;99.90
15241;DHT22;7723;52.170;9.978;2024-01-27T02:52:10;3.60;99.90
15241;DHT22;7723;52.170;9.978;2024-01-27T02:54:39;3.50;99.90
15241;DHT22;7723;52.170;9.978;2024-01-27T02:57:06;3.50;99.90
15241;DHT22;7723;52.170;9.978;2024-01-27T02:59:35;3.50;99.90
15241;DHT22;7723;52.170;9.978;2024-01-27T03:02:04;3.50;99.90
15241;DHT22;7723;52.170;9.978;2024-01-27T03:04:32;3.40;99.90
15241;DHT22;7723;52.170;9.978;2024-01-27T03:06:59;3.40;99.90
15241;DHT22;7723;52.170;9.978;2024-01-27T03:09:27;3.50;99.90
15241;DHT22;7723;52.170;9.978;2024-01-27T03:11:54;3.50;99.90
15241;DHT22;7723;52.170;9.978;2024-01-27T03:14:21;3.50;99.90
15241;DHT22;7723;52.170;9.978;2024-01-27T03:16:50;3.50;99.90
15241;DHT22;7723;52.170;9.978;2024-01-27T03:19:17;3.40;99.90
15241;DHT22;7723;52.170;9.978;2024-01-27T03:21:45;3.40;99.90
15241;DHT22;7723;52.170;9.978;2024-01-27T03:24:12;3.40;99.90
15241;DHT22;7723;52.170;9.978;2024-01-27T03:26:39;3.40;99.90
15241;DHT22;7723;52.170;9.978;2024-01-27T03:29:06;3.40;99.90
15241;DHT22;7723;52.170;9.978;2024-01-27T03:31:33;3.40;99.90
15241;DHT22;7723;52.170;9.978;2024-01-27T03:34:03;3.30;99.90
15241;DHT22;7723;52.170;9.978;2024-01-27T03:36:30;3.90;99.90
15241;DHT22;7723;52.170;9.978;2024-01-27T03:38:58;3.30;99.90
15241;DHT22;7723;52.170;9.978;2024-01-27T03:41:25;3.30;99.90
15241;DHT22;7723;52.170;9.978;2024-01-27T03:43:53;3.30;99.90
15241;DHT22;7723;52.170;9.978;2024-01-27T03:46:20;3.20;99.90
15241;DHT22;7723;52.170;9.978;2024-01-27T03:48:47;3.30;99.90
15241;DHT22;7723;52.170;9.978;2024-01-27T03:51:15;3.20;99.90
15241;DHT22;7723;52.170;9.978;2024-01-27T03:53:43;3.30;99.90
15241;DHT22;7723;52.170;9.978;2024-01-27T03:56:12;3.30;99.90
15241;DHT22;7723;52.170;9.978;2024-01-27T03:58:39;3.20;99.90
15241;DHT22;7723;52.170;9.978;2024-01-27T04:01:06;3.20;99.90
15241;DHT22;7723;52.170;9.978;2024-01-27T04:03:35;3.10;99.90
15241;DHT22;7723;52.170;9.978;2024-01-27T04:06:03;3.20;99.90
15241;DHT22;7723;52.170;9.978;2024-01-27T04:08:31;3.10;99.90
15241;DHT22;7723;52.170;9.978;2024-01-27T04:10:58;3.10;99.90
15241;DHT22;7723;52.170;9.978;2024-01-27T04:13:26;3.10;99.90
15241;DHT22;7723;52.170;9.978;2024-01-27T04:15:53;3.10;99.90
15241;DHT22;7723;52.170;9.978;2024-01-27T04:18:21;3.10;99.90
15241;DHT22;7723;52.170;9.978;2024-01-27T04:20:48;3.10;99.90
15241;DHT22;7723;52.170;9.978;2024-01-27T04:23:15;3.00;99.90
15241;DHT22;7723;52.170;9.978;2024-01-27T04:25:44;3.00;99.90
15241;DHT22;7723;52.170;9.978;2024-01-27T04:28:11;3.00;99.90
15241;DHT22;7723;52.170;9.978;2024-01-27T04:30:39;3.00;99.90
15241;DHT22;7723;52.170;9.978;2024-01-27T04:33:06;3.00;99.90
15241;DHT22;7723;52.170;9.978;2024-01-27T04:35:33;2.90;99.90
15241;DHT22;7723;52.170;9.978;2024-01-27T04:38:01;2.90;99.90
15241;DHT22;7723;52.170;9.978;2024-01-27T04:40:28;2.90;99.90
15241;DHT22;7723;52.170;9.978;2024-01-27T04:42:57;2.90;99.90
15241;DHT22;7723;52.170;9.978;2024-01-27T04:45:25;2.90;99.90
15241;DHT22;7723;52.170;9.978;2024-01-27T04:47:52;2.90;99.90
15241;DHT22;7723;52.170;9.978;2024-01-27T04:50:20;2.80;99.90
15241;DHT22;7723;52.170;9.978;2024-01-27T04:52:47;2.80;99.90
15241;DHT22;7723;52.170;9.978;2024-01-27T04:55:14;2.80;99.90
15241;DHT22;7723;52.170;9.978;2024-01-27T04:57:42;2.80;99.90
15241;DHT22;7723;52.170;9.978;2024-01-27T05:00:14;2.80;99.90
15241;DHT22;7723;52.170;9.978;2024-01-27T05:02:45;2.80;99.90
15241;DHT22;7723;52.170;9.978;2024-01-27T05:05:12;2.80;99.90
15241;DHT22;7723;52.170;9.978;2024-01-27T05:07:40;2.80;99.90
15241;DHT22;7723;52.170;9.978;2024-01-27T05:10:10;2.80;99.90
15241;DHT22;7723;52.170;9.978;2024-01-27T05:12:37;2.70;99.90
15241;DHT22;7723;52.170;9.978;2024-01-27T05:15:05;2.80;99.90
15241;DHT22;7723;52.170;9.978;2024-01-27T05:17:33;2.70;99.90
15241;DHT22;7723;52.170;9.978;2024-01-27T05:20:00;2.70;99.90
15241;DHT22;7723;52.170;9.978;2024-01-27T05:22:29;2.70;99.90
15241;DHT22;7723;52.170;9.978;2024-01-27T05:24:57;2.60;99.90
15241;DHT22;7723;52.170;9.978;2024-01-27T05:27:24;2.60;99.90
15241;DHT22;7723;52.170;9.978;2024-01-27T05:29:51;2.70;99.90
15241;DHT22;7723;52.170;9.978;2024-01-27T05:32:19;2.70;99.90
15241;DHT22;7723;52.170;9.978;2024-01-27T05:34:48;2.70;99.90
15241;DHT22;7723;52.170;9.978;2024-01-27T05:37:15;2.70;99.90
15241;DHT22;7723;52.170;9.978;2024-01-27T05:39:42;2.70;99.90
15241;DHT22;7723;52.170;9.978;2024-01-27T05:42:09;2.70;99.90
15241;DHT22;7723;52.170;9.978;2024-01-27T05:44:36;2.60;99.90
15241;DHT22;7723;52.170;9.978;2024-01-27T05:47:06;2.70;99.90
15241;DHT22;7723;52.170;9.978;2024-01-27T05:49:33;2.60;99.90
15241;DHT22;7723;52.170;9.978;2024-01-27T05:52:02;2.60;99.90
15241;DHT22;7723;52.170;9.978;2024-01-27T05:54:29;2.60;99.90
15241;DHT22;7723;52.170;9.978;2024-01-27T05:56:56;2.50;99.90
15241;DHT22;7723;52.170;9.978;2024-01-27T05:59:23;2.50;99.90
15241;DHT22;7723;52.170;9.978;2024-01-27T06:01:50;2.50;99.90
15241;DHT22;7723;52.170;9.978;2024-01-27T06:04:17;2.40;99.90
15241;DHT22;7723;52.170;9.978;2024-01-27T06:06:45;2.40;99.90
15241;DHT22;7723;52.170;9.978;2024-01-27T06:09:13;2.40;99.90
15241;DHT22;7723;52.170;9.978;2024-01-27T06:11:40;2.40;99.90
15241;DHT22;7723;52.170;9.978;2024-01-27T06:14:08;2.40;99.90
15241;DHT22;7723;52.170;9.978;2024-01-27T06:16:35;2.40;99.90
15241;DHT22;7723;52.170;9.978;2024-01-27T06:19:02;2.40;99.90
15241;DHT22;7723;52.170;9.978;2024-01-27T06:21:30;2.40;99.90
15241;DHT22;7723;52.170;9.978;2024-01-27T06:23:57;2.40;99.90
15241;DHT22;7723;52.170;9.978;2024-01-27T06:26:26;2.40;99.90
15241;DHT22;7723;52.170;9.978;2024-01-27T06:28:53;2.40;99.90
15241;DHT22;7723;52.170;9.978;2024-01-27T06:31:20;2.40;99.90
15241;DHT22;7723;52.170;9.978;2024-01-27T06:33:47;2.40;99.90
15241;DHT22;7723;52.170;9.978;2024-01-27T06:36:15;2.40;99.90
15241;DHT22;7723;52.170;9.978;2024-01-27T06:38:42;2.40;99.90
15241;DHT22;7723;52.170;9.978;2024-01-27T06:41:10;2.40;99.90
15241;DHT22;7723;52.170;9.978;2024-01-27T06:43:38;2.40;99.90
15241;DHT22;7723;52.170;9.978;2024-01-27T06:46:06;2.50;99.90
15241;DHT22;7723;52.170;9.978;2024-01-27T06:48:33;2.40;99.90
15241;DHT22;7723;52.170;9.978;2024-01-27T06:51:00;2.30;99.90
15241;DHT22;7723;52.170;9.978;2024-01-27T06:53:30;2.30;99.90
15241;DHT22;7723;52.170;9.978;2024-01-27T06:55:57;2.30;99.90
15241;DHT22;7723;52.170;9.978;2024-01-27T06:58:24;2.20;99.90
15241;DHT22;7723;52.170;9.978;2024-01-27T07:00:53;2.30;99.90
15241;DHT22;7723;52.170;9.978;2024-01-27T07:03:20;2.30;99.90
15241;DHT22;7723;52.170;9.978;2024-01-27T07:05:48;2.30;99.90
15241;DHT22;7723;52.170;9.978;2024-01-27T07:08:15;2.30;99.90
15241;DHT22;7723;52.170;9.978;2024-01-27T07:10:42;2.40;99.90
15241;DHT22;7723;52.170;9.978;2024-01-27T07:13:10;2.40;99.90
15241;DHT22;7723;52.170;9.978;2024-01-27T07:15:37;2.50;99.90
15241;DHT22;7723;52.170;9.978;2024-01-27T07:18:06;2.40;99.90
15241;DHT22;7723;52.170;9.978;2024-01-27T07:20:34;2.40;99.90
15241;DHT22;7723;52.170;9.978;2024-01-27T07:23:01;2.30;99.90
15241;DHT22;7723;52.170;9.978;2024-01-27T07:25:28;2.30;99.90
15241;DHT22;7723;52.170;9.978;2024-01-27T07:27:56;2.40;99.90
15241;DHT22;7723;52.170;9.978;2024-01-27T07:30:23;2.30;99.90
15241;DHT22;7723;52.170;9.978;2024-01-27T07:32:51;2.40;99.90
15241;DHT22;7723;52.170;9.978;2024-01-27T07:35:19;2.40;99.90
15241;DHT22;7723;52.170;9.978;2024-01-27T07:37:47;2.50;99.90
15241;DHT22;7723;52.170;9.978;2024-01-27T07:40:17;2.60;99.90
15241;DHT22;7723;52.170;9.978;2024-01-27T07:42:44;2.70;99.90
15241;DHT22;7723;52.170;9.978;2024-01-27T07:45:12;2.70;99.90
15241;DHT22;7723;52.170;9.978;2024-01-27T07:47:39;2.70;99.90
15241;DHT22;7723;52.170;9.978;2024-01-27T07:50:07;2.70;99.90
15241;DHT22;7723;52.170;9.978;2024-01-27T07:52:36;2.90;99.90
15241;DHT22;7723;52.170;9.978;2024-01-27T07:55:04;3.00;99.90
15241;DHT22;7723;52.170;9.978;2024-01-27T07:57:31;3.30;99.90
15241;DHT22;7723;52.170;9.978;2024-01-27T07:59:59;3.60;99.90
15241;DHT22;7723;52.170;9.978;2024-01-27T08:02:26;3.80;99.90
15241;DHT22;7723;52.170;9.978;2024-01-27T08:04:53;4.00;99.90
15241;DHT22;7723;52.170;9.978;2024-01-27T08:07:20;4.30;99.90
15241;DHT22;7723;52.170;9.978;2024-01-27T08:09:49;4.60;99.90
15241;DHT22;7723;52.170;9.978;2024-01-27T08:12:16;4.80;99.90
15241;DHT22;7723;52.170;9.978;2024-01-27T08:14:44;4.90;99.90
15241;DHT22;7723;52.170;9.978;2024-01-27T08:17:11;5.00;99.90
15241;DHT22;7723;52.170;9.978;2024-01-27T08:19:39;5.30;99.90
15241;DHT22;7723;52.170;9.978;2024-01-27T08:22:06;5.40;99.90
15241;DHT22;7723;52.170;9.978;2024-01-27T08:24:35;5.70;99.90
15241;DHT22;7723;52.170;9.978;2024-01-27T08:27:04;5.80;99.90
15241;DHT22;7723;52.170;9.978;2024-01-27T08:29:31;6.00;99.90
15241;DHT22;7723;52.170;9.978;2024-01-27T08:32:01;6.30;99.90
15241;DHT22;7723;52.170;9.978;2024-01-27T08:34:28;6.30;99.90
15241;DHT22;7723;52.170;9.978;2024-01-27T08:37:02;6.40;99.90
15241;DHT22;7723;52.170;9.978;2024-01-27T08:39:29;6.50;99.90
15241;DHT22;7723;52.170;9.978;2024-01-27T08:41:56;6.30;99.90
15241;DHT22;7723;52.170;9.978;2024-01-27T08:44:26;6.50;67.00
15241;DHT22;7723;52.170;9.978;2024-01-27T08:46:55;6.30;1.00
15241;DHT22;7723;52.170;9.978;2024-01-27T08:49:23;6.10;1.00
15241;DHT22;7723;52.170;9.978;2024-01-27T08:51:53;6.50;1.00
15241;DHT22;7723;52.170;9.978;2024-01-27T08:54:21;6.50;1.00
15241;DHT22;7723;52.170;9.978;2024-01-27T08:56:48;6.80;1.00
15241;DHT22;7723;52.170;9.978;2024-01-27T08:59:15;6.60;99.90
15241;DHT22;7723;52.170;9.978;2024-01-27T09:01:44;6.60;99.90
15241;DHT22;7723;52.170;9.978;2024-01-27T09:04:11;6.80;1.00
15241;DHT22;7723;52.170;9.978;2024-01-27T09:06:38;6.90;1.00
15241;DHT22;7723;52.170;9.978;2024-01-27T09:09:05;7.00;99.90
15241;DHT22;7723;52.170;9.978;2024-01-27T09:11:33;6.90;1.00
15241;DHT22;7723;52.170;9.978;2024-01-27T09:14:01;6.90;1.00
15241;DHT22;7723;52.170;9.978;2024-01-27T09:16:28;7.10;1.00
15241;DHT22;7723;52.170;9.978;2024-01-27T09:18:56;7.20;99.90
15241;DHT22;7723;52.170;9.978;2024-01-27T09:21:24;7.10;1.00
15241;DHT22;7723;52.170;9.978;2024-01-27T09:23:54;6.90;1.00
15241;DHT22;7723;52.170;9.978;2024-01-27T09:26:22;7.10;24.90
15241;DHT22;7723;52.170;9.978;2024-01-27T09:28:49;7.10;99.90
15241;DHT22;7723;52.170;9.978;2024-01-27T09:31:20;7.10;1.00
15241;DHT22;7723;52.170;9.978;2024-01-27T09:33:49;6.90;99.90
15241;DHT22;7723;52.170;9.978;2024-01-27T09:36:19;7.00;99.90
15241;DHT22;7723;52.170;9.978;2024-01-27T09:38:46;7.10;1.00
15241;DHT22;7723;52.170;9.978;2024-01-27T09:41:14;7.20;1.00
15241;DHT22;7723;52.170;9.978;2024-01-27T09:43:44;7.20;99.90
15241;DHT22;7723;52.170;9.978;2024-01-27T09:46:12;7.20;99.90
15241;DHT22;7723;52.170;9.978;2024-01-27T09:48:39;7.40;74.00
15241;DHT22;7723;52.170;9.978;2024-01-27T09:51:08;7.40;1.00
15241;DHT22;7723;52.170;9.978;2024-01-27T09:53:37;7.30;1.00
15241;DHT22;7723;52.170;9.978;2024-01-27T09:56:04;7.30;1.00
15241;DHT22;7723;52.170;9.978;2024-01-27T09:58:33;7.30;99.90
15241;DHT22;7723;52.170;9.978;2024-01-27T10:01:00;7.40;99.90
15241;DHT22;7723;52.170;9.978;2024-01-27T10:03:29;7.60;99.90
15241;DHT22;7723;52.170;9.978;2024-01-27T10:05:57;7.70;1.00
15241;DHT22;7723;52.170;9.978;2024-01-27T10:08:25;7.40;1.00
15241;DHT22;7723;52.170;9.978;2024-01-27T10:10:55;7.50;1.00
15241;DHT22;7723;52.170;9.978;2024-01-27T10:13:23;7.50;1.00
15241;DHT22;7723;52.170;9.978;2024-01-27T10:16:00;7.60;1.00
15241;DHT22;7723;52.170;9.978;2024-01-27T10:18:27;7.70;99.90
15241;DHT22;7723;52.170;9.978;2024-01-27T10:20:54;7.70;99.90
15241;DHT22;7723;52.170;9.978;2024-01-27T10:23:21;7.40;1.00
15241;DHT22;7723;52.170;9.978;2024-01-27T10:25:49;7.20;1.00
15241;DHT22;7723;52.170;9.978;2024-01-27T10:28:18;6.90;99.90
15241;DHT22;7723;52.170;9.978;2024-01-27T10:30:45;6.70;1.00
15241;DHT22;7723;52.170;9.978;2024-01-27T10:33:14;6.60;1.00
15241;DHT22;7723;52.170;9.978;2024-01-27T10:35:42;6.60;99.90
15241;DHT22;7723;52.170;9.978;2024-01-27T10:38:09;6.60;1.00
15241;DHT22;7723;52.170;9.978;2024-01-27T10:40:37;6.50;99.90
15241;DHT22;7723;52.170;9.978;2024-01-27T10:43:06;6.50;99.90
15241;DHT22;7723;52.170;9.978;2024-01-27T10:45:38;6.50;1.00
15241;DHT22;7723;52.170;9.978;2024-01-27T10:48:07;6.40;1.00
15241;DHT22;7723;52.170;9.978;2024-01-27T10:50:37;6.50;99.90
15241;DHT22;7723;52.170;9.978;2024-01-27T10:53:07;6.50;99.90
15241;DHT22;7723;52.170;9.978;2024-01-27T10:55:37;6.60;99.90
15241;DHT22;7723;52.170;9.978;2024-01-27T10:58:04;6.50;27.40
15241;DHT22;7723;52.170;9.978;2024-01-27T11:00:32;6.50;99.90
15241;DHT22;7723;52.170;9.978;2024-01-27T11:03:02;6.60;1.00
15241;DHT22;7723;52.170;9.978;2024-01-27T11:05:31;6.60;1.00
15241;DHT22;7723;52.170;9.978;2024-01-27T11:08:06;6.50;1.00
15241;DHT22;7723;52.170;9.978;2024-01-27T11:10:38;6.50;99.90
15241;DHT22;7723;52.170;9.978;2024-01-27T11:13:07;6.60;1.00
15241;DHT22;7723;52.170;9.978;2024-01-27T11:15:34;6.60;99.90
15241;DHT22;7723;52.170;9.978;2024-01-27T11:18:04;6.60;1.00
15241;DHT22;7723;52.170;9.978;2024-01-27T11:20:32;6.70;1.00
15241;DHT22;7723;52.170;9.978;2024-01-27T11:23:09;6.70;99.90
15241;DHT22;7723;52.170;9.978;2024-01-27T11:25:36;6.70;99.90
15241;DHT22;7723;52.170;9.978;2024-01-27T11:28:11;6.70;99.90
15241;DHT22;7723;52.170;9.978;2024-01-27T11:30:39;6.70;1.00
15241;DHT22;7723;52.170;9.978;2024-01-27T11:33:09;6.60;1.00
15241;DHT22;7723;52.170;9.978;2024-01-27T11:35:37;6.70;1.00
15241;DHT22;7723;52.170;9.978;2024-01-27T11:38:04;6.70;1.00
15241;DHT22;7723;52.170;9.978;2024-01-27T11:40:31;5.70;99.90
15241;DHT22;7723;52.170;9.978;2024-01-27T11:43:00;6.80;1.00
15241;DHT22;7723;52.170;9.978;2024-01-27T11:45:27;6.70;1.00
15241;DHT22;7723;52.170;9.978;2024-01-27T11:47:56;6.80;1.00
15241;DHT22;7723;52.170;9.978;2024-01-27T11:50:24;6.80;1.00
15241;DHT22;7723;52.170;9.978;2024-01-27T11:52:51;6.80;99.90
15241;DHT22;7723;52.170;9.978;2024-01-27T11:55:19;6.80;99.90
15241;DHT22;7723;52.170;9.978;2024-01-27T11:57:46;6.80;1.00
15241;DHT22;7723;52.170;9.978;2024-01-27T12:00:16;6.70;1.00
15241;DHT22;7723;52.170;9.978;2024-01-27T12:02:50;6.80;99.90
15241;DHT22;7723;52.170;9.978;2024-01-27T12:05:17;6.80;1.00
15241;DHT22;7723;52.170;9.978;2024-01-27T12:07:46;6.80;99.90
15241;DHT22;7723;52.170;9.978;2024-01-27T12:10:14;6.90;99.90
15241;DHT22;7723;52.170;9.978;2024-01-27T12:12:42;6.90;1.00
15241;DHT22;7723;52.170;9.978;2024-01-27T12:15:09;6.90;1.00
15241;DHT22;7723;52.170;9.978;2024-01-27T12:17:37;6.80;1.00
15241;DHT22;7723;52.170;9.978;2024-01-27T12:20:14;6.90;1.00
15241;DHT22;7723;52.170;9.978;2024-01-27T12:22:42;6.90;25.70
15241;DHT22;7723;52.170;9.978;2024-01-27T12:25:12;7.00;1.00
15241;DHT22;7723;52.170;9.978;2024-01-27T12:27:39;7.00;1.00
15241;DHT22;7723;52.170;9.978;2024-01-27T12:30:08;7.00;85.10
15241;DHT22;7723;52.170;9.978;2024-01-27T12:32:36;7.00;99.90
15241;DHT22;7723;52.170;9.978;2024-01-27T12:35:05;7.00;99.90
15241;DHT22;7723;52.170;9.978;2024-01-27T12:37:36;7.10;1.00
15241;DHT22;7723;52.170;9.978;2024-01-27T12:40:07;7.00;1.00
15241;DHT22;7723;52.170;9.978;2024-01-27T12:42:44;7.00;1.00
15241;DHT22;7723;52.170;9.978;2024-01-27T12:45:12;7.00;1.00
15241;DHT22;7723;52.170;9.978;2024-01-27T12:47:39;7.00;1.00
15241;DHT22;7723;52.170;9.978;2024-01-27T12:50:07;7.10;99.90
15241;DHT22;7723;52.170;9.978;2024-01-27T12:52:35;7.10;99.90
15241;DHT22;7723;52.170;9.978;2024-01-27T12:55:02;7.10;1.00
15241;DHT22;7723;52.170;9.978;2024-01-27T12:57:30;7.20;99.90
15241;DHT22;7723;52.170;9.978;2024-01-27T12:59:59;7.20;27.40
15241;DHT22;7723;52.170;9.978;2024-01-27T13:02:26;7.20;79.60
15241;DHT22;7723;52.170;9.978;2024-01-27T13:04:53;7.20;1.00
15241;DHT22;7723;52.170;9.978;2024-01-27T13:07:21;7.20;99.90
15241;DHT22;7723;52.170;9.978;2024-01-27T13:09:48;7.20;99.90
15241;DHT22;7723;52.170;9.978;2024-01-27T13:12:15;7.20;90.70
15241;DHT22;7723;52.170;9.978;2024-01-27T13:14:42;7.30;94.10
15241;DHT22;7723;52.170;9.978;2024-01-27T13:17:11;7.30;99.90
15241;DHT22;7723;52.170;9.978;2024-01-27T13:19:41;7.20;1.00
15241;DHT22;7723;52.170;9.978;2024-01-27T13:22:08;7.20;1.00
15241;DHT22;7723;52.170;9.978;2024-01-27T13:24:35;7.20;99.90
15241;DHT22;7723;52.170;9.978;2024-01-27T13:27:04;7.20;99.90
15241;DHT22;7723;52.170;9.978;2024-01-27T13:29:33;7.10;99.90
15241;DHT22;7723;52.170;9.978;2024-01-27T13:32:01;7.10;99.90
15241;DHT22;7723;52.170;9.978;2024-01-27T13:34:30;7.10;1.00
15241;DHT22;7723;52.170;9.978;2024-01-27T13:36:58;7.10;1.00
15241;DHT22;7723;52.170;9.978;2024-01-27T13:39:28;7.10;1.00
15241;DHT22;7723;52.170;9.978;2024-01-27T13:41:57;7.10;1.00
15241;DHT22;7723;52.170;9.978;2024-01-27T13:44:25;7.10;1.00
15241;DHT22;7723;52.170;9.978;2024-01-27T13:46:55;7.10;1.00
15241;DHT22;7723;52.170;9.978;2024-01-27T13:49:26;7.00;1.00
15241;DHT22;7723;52.170;9.978;2024-01-27T13:51:55;7.10;1.00
15241;DHT22;7723;52.170;9.978;2024-01-27T13:54:22;7.10;1.00
15241;DHT22;7723;52.170;9.978;2024-01-27T13:56:49;7.10;1.00
15241;DHT22;7723;52.170;9.978;2024-01-27T13:59:16;7.10;1.00
15241;DHT22;7723;52.170;9.978;2024-01-27T14:01:45;7.00;1.00
15241;DHT22;7723;52.170;9.978;2024-01-27T14:04:12;7.10;1.00
15241;DHT22;7723;52.170;9.978;2024-01-27T14:06:39;7.00;1.00
15241;DHT22;7723;52.170;9.978;2024-01-27T14:09:08;7.00;99.90
15241;DHT22;7723;52.170;9.978;2024-01-27T14:11:35;7.00;1.00
15241;DHT22;7723;52.170;9.978;2024-01-27T14:14:02;6.90;1.00
15241;DHT22;7723;52.170;9.978;2024-01-27T14:16:30;6.90;39.20
15241;DHT22;7723;52.170;9.978;2024-01-27T14:18:57;6.90;99.90
15241;DHT22;7723;52.170;9.978;2024-01-27T14:21:24;6.90;99.90
15241;DHT22;7723;52.170;9.978;2024-01-27T14:23:53;6.90;99.90
15241;DHT22;7723;52.170;9.978;2024-01-27T14:26:28;6.80;99.90
15241;DHT22;7723;52.170;9.978;2024-01-27T14:28:55;6.80;99.90
15241;DHT22;7723;52.170;9.978;2024-01-27T14:31:22;6.80;99.90
15241;DHT22;7723;52.170;9.978;2024-01-27T14:33:50;6.80;99.90
15241;DHT22;7723;52.170;9.978;2024-01-27T14:36:17;6.70;99.90
15241;DHT22;7723;52.170;9.978;2024-01-27T14:38:50;6.80;99.90
15241;DHT22;7723;52.170;9.978;2024-01-27T14:41:27;6.80;99.90
15241;DHT22;7723;52.170;9.978;2024-01-27T14:43:54;6.70;1.00
15241;DHT22;7723;52.170;9.978;2024-01-27T14:46:22;6.70;1.00
15241;DHT22;7723;52.170;9.978;2024-01-27T14:48:49;6.70;1.00
15241;DHT22;7723;52.170;9.978;2024-01-27T14:51:16;6.70;1.00
15241;DHT22;7723;52.170;9.978;2024-01-27T14:53:43;6.60;1.00
15241;DHT22;7723;52.170;9.978;2024-01-27T14:56:11;6.60;1.00
15241;DHT22;7723;52.170;9.978;2024-01-27T14:58:43;6.60;1.00
15241;DHT22;7723;52.170;9.978;2024-01-27T15:01:12;6.50;1.00
15241;DHT22;7723;52.170;9.978;2024-01-27T15:03:41;6.50;1.00
15241;DHT22;7723;52.170;9.978;2024-01-27T15:06:08;6.50;1.00
15241;DHT22;7723;52.170;9.978;2024-01-27T15:08:36;6.60;1.00
15241;DHT22;7723;52.170;9.978;2024-01-27T15:11:03;6.40;1.00
15241;DHT22;7723;52.170;9.978;2024-01-27T15:13:31;6.30;1.00
15241;DHT22;7723;52.170;9.978;2024-01-27T15:15:59;6.30;1.00
15241;DHT22;7723;52.170;9.978;2024-01-27T15:18:26;6.20;1.00
15241;DHT22;7723;52.170;9.978;2024-01-27T15:20:54;6.20;1.00
15241;DHT22;7723;52.170;9.978;2024-01-27T15:23:23;6.20;1.00
15241;DHT22;7723;52.170;9.978;2024-01-27T15:25:51;6.10;49.20
15241;DHT22;7723;52.170;9.978;2024-01-27T15:28:18;6.90;1.00
15241;DHT22;7723;52.170;9.978;2024-01-27T15:30:46;6.10;99.90
15241;DHT22;7723;52.170;9.978;2024-01-27T15:33:16;6.00;99.90
15241;DHT22;7723;52.170;9.978;2024-01-27T15:35:43;5.90;99.90
15241;DHT22;7723;52.170;9.978;2024-01-27T15:38:10;5.90;99.90
15241;DHT22;7723;52.170;9.978;2024-01-27T15:40:38;5.80;1.00
15241;DHT22;7723;52.170;9.978;2024-01-27T15:43:05;5.80;1.00
15241;DHT22;7723;52.170;9.978;2024-01-27T15:45:33;5.70;99.90
15241;DHT22;7723;52.170;9.978;2024-01-27T15:48:00;5.60;99.90
15241;DHT22;7723;52.170;9.978;2024-01-27T15:50:29;5.60;1.00
15241;DHT22;7723;52.170;9.978;2024-01-27T15:52:57;5.60;99.90
15241;DHT22;7723;52.170;9.978;2024-01-27T15:55:25;5.50;1.00
15241;DHT22;7723;52.170;9.978;2024-01-27T15:57:53;5.40;1.00
15241;DHT22;7723;52.170;9.978;2024-01-27T16:00:20;5.20;1.00
15241;DHT22;7723;52.170;9.978;2024-01-27T16:02:47;5.10;1.00
15241;DHT22;7723;52.170;9.978;2024-01-27T16:05:15;5.00;1.00
15241;DHT22;7723;52.170;9.978;2024-01-27T16:07:45;5.00;99.90
15241;DHT22;7723;52.170;9.978;2024-01-27T16:10:12;4.90;99.90
15241;DHT22;7723;52.170;9.978;2024-01-27T16:12:41;4.80;99.90